createdAt,value
2023-03-26T00:03:58.588Z,12.23
2023-03-26T00:08:00.669Z,11.70
2023-03-26T00:12:02.869Z,12.98
2023-03-26T00:16:05.354Z,13.23
2023-03-26T00:20:08.592Z,12.70
2023-03-26T00:24:15.234Z,12.18
2023-03-26T00:28:21.540Z,12.05
2023-03-26T00:32:27.886Z,10.98
2023-03-26T00:36:29.691Z,11.65
2023-03-26T00:40:32.152Z,11.63
2023-03-26T00:44:34.985Z,10.05
2023-03-26T00:48:44.962Z,10.45
2023-03-26T00:52:47.669Z,10.45
2023-03-26T00:56:49.485Z,10.05
2023-03-26T01:00:57.353Z,10.00
2023-03-26T01:05:02.979Z,9.25
2023-03-26T01:09:15.792Z,10.15
2023-03-26T01:13:23.425Z,10.15
2023-03-26T01:17:34.570Z,9.52
2023-03-26T01:21:38.881Z,8.95
2023-03-26T01:25:47.846Z,8.60
2023-03-26T01:30:07.527Z,8.68
2023-03-26T01:34:15.405Z,8.68
2023-03-26T01:38:46.747Z,8.27
2023-03-26T01:43:09.085Z,8.63
2023-03-26T01:47:13.356Z,7.60
2023-03-26T01:51:27.290Z,8.35
2023-03-26T01:55:57.366Z,8.13
2023-03-26T02:00:11.558Z,7.53
2023-03-26T02:04:26.500Z,8.40
2023-03-26T02:08:37.001Z,7.18
2023-03-26T02:12:40.685Z,7.50
2023-03-26T02:16:46.774Z,6.82
2023-03-26T02:20:49.058Z,7.75
2023-03-26T02:24:54.957Z,8.05
2023-03-26T02:28:59.465Z,7.60
2023-03-26T02:33:01.637Z,8.48
2023-03-26T02:37:14.060Z,7.00
2023-03-26T02:41:18.421Z,7.18
2023-03-26T02:45:30.076Z,7.90
2023-03-26T02:49:50.645Z,7.50
2023-03-26T02:54:16.829Z,7.60
2023-03-26T02:58:30.457Z,6.68
2023-03-26T03:02:32.815Z,6.75
2023-03-26T03:06:52.950Z,7.18
2023-03-26T03:10:57.691Z,6.07
2023-03-26T03:15:13.093Z,7.50
2023-03-26T03:19:15.748Z,6.70
2023-03-26T03:23:17.981Z,7.65
2023-03-26T03:27:22.227Z,7.10
2023-03-26T03:31:31.956Z,6.75
2023-03-26T03:35:39.955Z,6.88
2023-03-26T03:39:42.121Z,6.47
2023-03-26T03:43:45.349Z,6.38
2023-03-26T03:47:51.879Z,7.22
2023-03-26T03:56:14.733Z,5.53
2023-03-26T04:00:41.635Z,6.38
2023-03-26T04:05:05.687Z,5.40
2023-03-26T04:09:09.948Z,5.40
2023-03-26T04:13:14.195Z,5.43
2023-03-26T04:17:42.502Z,5.15
2023-03-26T04:21:46.195Z,4.47
2023-03-26T04:25:53.502Z,5.18
2023-03-26T04:30:01.935Z,5.00
2023-03-26T04:34:14.358Z,5.28
2023-03-26T04:38:49.396Z,5.40
2023-03-26T04:47:18.462Z,5.20
2023-03-26T04:51:27.046Z,5.15
2023-03-26T04:55:35.499Z,5.13
2023-03-26T04:59:44.797Z,5.70
2023-03-26T05:03:48.509Z,6.40
2023-03-26T05:07:51.446Z,11.98
2023-03-26T05:11:55.104Z,12.38
2023-03-26T05:15:57.487Z,11.05
2023-03-26T05:20:26.359Z,8.35
2023-03-26T05:24:28.884Z,7.25
2023-03-26T05:28:31.007Z,5.90
2023-03-26T05:32:38.165Z,4.82
2023-03-26T05:36:40.704Z,5.88
2023-03-26T05:41:04.616Z,6.20
2023-03-26T05:45:10.343Z,5.68
2023-03-26T05:49:12.433Z,5.55
2023-03-26T05:53:14.656Z,10.98
2023-03-26T05:57:36.769Z,5.82
2023-03-26T06:02:11.144Z,9.00
2023-03-26T06:06:33.264Z,6.47
2023-03-26T06:10:38.816Z,6.03
2023-03-26T06:14:42.820Z,5.35
2023-03-26T06:18:56.623Z,5.80
2023-03-26T06:23:19.064Z,5.47
2023-03-26T06:27:39.962Z,4.68
2023-03-26T06:32:12.436Z,4.35
2023-03-26T06:36:36.938Z,4.88
2023-03-26T06:40:39.362Z,4.85
2023-03-26T06:44:59.839Z,5.53
2023-03-26T06:49:20.946Z,5.70
2023-03-26T06:53:41.609Z,5.28
2023-03-26T06:57:55.073Z,5.03
2023-03-26T07:02:15.553Z,4.95
2023-03-26T07:06:36.639Z,5.38
2023-03-26T07:10:57.318Z,5.05
2023-03-26T07:15:19.282Z,5.68
2023-03-26T07:19:36.909Z,5.50
2023-03-26T07:23:39.458Z,5.47
2023-03-26T07:28:32.936Z,4.97
2023-03-26T07:33:01.494Z,4.88
2023-03-26T07:37:41.245Z,4.63
2023-03-26T07:41:49.822Z,4.45
2023-03-26T07:46:12.777Z,4.10
2023-03-26T07:50:26.765Z,4.40
2023-03-26T07:54:35.024Z,4.28
2023-03-26T07:59:16.043Z,4.57
2023-03-26T08:04:24.710Z,4.32
2023-03-26T08:09:39.801Z,4.05
2023-03-26T08:14:17.726Z,5.00
2023-03-26T08:18:54.269Z,4.65
2023-03-26T08:23:06.480Z,3.75
2023-03-26T08:27:22.613Z,3.90
2023-03-26T08:31:34.935Z,3.97
2023-03-26T08:35:42.646Z,3.70
2023-03-26T08:39:45.087Z,3.78
2023-03-26T08:44:14.154Z,3.88
2023-03-26T08:48:30.302Z,4.68
2023-03-26T08:53:08.598Z,4.82
2023-03-26T08:57:21.793Z,4.15
2023-03-26T09:01:29.688Z,4.38
2023-03-26T09:05:49.595Z,5.10
2023-03-26T09:09:57.545Z,4.40
2023-03-26T09:14:05.647Z,3.87
2023-03-26T09:18:19.925Z,4.93
2023-03-26T09:22:48.452Z,4.63
2023-03-26T09:27:01.147Z,5.07
2023-03-26T09:31:24.387Z,3.88
2023-03-26T09:36:17.387Z,3.95
2023-03-26T09:40:22.623Z,3.55
2023-03-26T09:44:48.561Z,3.42
2023-03-26T09:49:08.700Z,3.47
2023-03-26T09:53:42.403Z,3.00
2023-03-26T09:58:03.941Z,3.50
2023-03-26T10:02:45.409Z,2.67
2023-03-26T10:07:04.203Z,2.60
2023-03-26T10:11:21.459Z,3.05
2023-03-26T10:15:40.055Z,2.78
2023-03-26T10:19:59.825Z,2.83
2023-03-26T10:24:09.161Z,2.70
2023-03-26T10:28:27.240Z,2.60
2023-03-26T10:32:51.863Z,2.03
2023-03-26T10:37:12.744Z,2.00
2023-03-26T10:41:29.572Z,3.03
2023-03-26T10:45:55.151Z,2.17
2023-03-26T10:49:57.133Z,4.82
2023-03-26T10:54:08.132Z,2.58
2023-03-26T10:58:21.909Z,2.85
2023-03-26T11:02:41.394Z,2.28
2023-03-26T11:06:54.130Z,1.25
2023-03-26T11:11:05.361Z,1.23
2023-03-26T11:15:11.722Z,0.80
2023-03-26T11:19:25.284Z,1.50
2023-03-26T11:23:42.567Z,1.75
2023-03-26T11:28:16.384Z,2.20
2023-03-26T11:32:23.891Z,2.28
2023-03-26T11:36:37.701Z,3.63
2023-03-26T11:40:50.573Z,4.13
2023-03-26T11:45:21.779Z,3.75
2023-03-26T11:49:27.042Z,3.20
2023-03-26T11:53:34.590Z,2.60
2023-03-26T11:57:40.409Z,2.67
2023-03-26T12:02:14.955Z,2.10
2023-03-26T12:06:27.500Z,2.10
2023-03-26T12:10:35.033Z,1.83
2023-03-26T12:14:42.856Z,1.80
2023-03-26T12:18:47.604Z,1.85
2023-03-26T12:22:52.034Z,1.80
2023-03-26T12:27:02.747Z,2.85
2023-03-26T12:31:05.356Z,2.65
2023-03-26T12:35:14.235Z,1.73
2023-03-26T12:40:10.246Z,6.53
2023-03-26T12:44:54.391Z,4.03
2023-03-26T12:49:08.957Z,2.20
2023-03-26T12:53:21.929Z,2.47
2023-03-26T12:57:26.472Z,2.53
2023-03-26T13:01:46.948Z,2.20
2023-03-26T13:05:58.257Z,2.47
2023-03-26T13:10:25.292Z,1.90
2023-03-26T13:14:47.614Z,1.85
2023-03-26T13:19:02.172Z,3.55
2023-03-26T13:23:18.037Z,2.97
2023-03-26T13:27:35.820Z,4.18
2023-03-26T13:31:50.007Z,3.28
2023-03-26T13:36:21.901Z,2.80
2023-03-26T13:40:37.383Z,4.50
2023-03-26T13:45:10.846Z,2.13
2023-03-26T13:49:16.538Z,2.65
2023-03-26T13:53:25.480Z,3.25
2023-03-26T13:57:33.203Z,2.42
2023-03-26T14:01:43.343Z,3.50
2023-03-26T14:05:49.626Z,6.68
2023-03-26T14:10:06.332Z,1.90
2023-03-26T14:14:16.590Z,2.65
2023-03-26T14:18:18.597Z,1.70
2023-03-26T14:22:48.632Z,1.23
2023-03-26T14:27:09.537Z,1.45
2023-03-26T14:31:23.662Z,1.20
2023-03-26T14:35:37.807Z,1.35
2023-03-26T14:40:14.699Z,1.60
2023-03-26T14:44:56.367Z,2.33
2023-03-26T14:49:28.595Z,1.60
2023-03-26T14:53:38.066Z,1.30
2023-03-26T14:57:53.934Z,5.20
2023-03-26T15:02:46.205Z,1.52
2023-03-26T15:07:27.196Z,1.35
2023-03-26T15:12:13.154Z,1.48
2023-03-26T15:16:45.433Z,1.30
2023-03-26T15:21:06.824Z,1.30
2023-03-26T15:25:33.611Z,1.58
2023-03-26T15:29:53.779Z,4.00
2023-03-26T15:34:05.133Z,2.03
2023-03-26T15:38:25.936Z,1.88
2023-03-26T15:42:52.680Z,4.43
2023-03-26T15:47:00.139Z,2.33
2023-03-26T15:51:46.565Z,2.15
2023-03-26T15:55:57.290Z,2.30
2023-03-26T16:00:22.574Z,1.80
2023-03-26T16:04:41.735Z,2.67
2023-03-26T16:09:14.795Z,4.53
2023-03-26T16:13:26.820Z,4.22
2023-03-26T16:18:09.174Z,3.83
2023-03-26T16:22:42.757Z,6.88
2023-03-26T16:27:15.644Z,8.75
2023-03-26T16:31:36.894Z,3.03
2023-03-26T16:35:58.547Z,3.60
2023-03-26T16:40:20.814Z,2.25
2023-03-26T16:44:41.066Z,2.72
2023-03-26T16:49:15.682Z,3.72
2023-03-26T16:53:24.082Z,7.85
2023-03-26T16:57:49.596Z,7.22
2023-03-26T17:02:16.339Z,4.70
2023-03-26T17:07:08.784Z,3.45
2023-03-26T17:11:40.866Z,4.32
2023-03-26T17:15:59.560Z,5.07
2023-03-26T17:20:27.164Z,13.75
2023-03-26T17:24:57.064Z,4.68
2023-03-26T17:29:58.063Z,4.32
2023-03-26T17:34:37.672Z,6.35
2023-03-26T17:38:39.702Z,8.77
2023-03-26T17:43:01.477Z,24.35
2023-03-26T17:47:06.595Z,13.07
2023-03-26T17:51:31.626Z,14.25
2023-03-26T17:55:38.728Z,13.30
2023-03-26T17:59:43.091Z,9.20
2023-03-26T18:03:49.673Z,9.98
2023-03-26T18:08:02.056Z,18.27
2023-03-26T18:12:22.874Z,11.90
2023-03-26T18:16:37.244Z,13.18
2023-03-26T18:20:42.621Z,10.75
2023-03-26T18:24:45.350Z,9.38
2023-03-26T18:28:53.189Z,6.18
2023-03-26T18:33:03.130Z,7.28
2023-03-26T18:37:11.201Z,6.30
2023-03-26T18:41:27.423Z,7.07
2023-03-26T18:45:33.596Z,6.03
2023-03-26T18:49:36.772Z,7.15
2023-03-26T18:53:45.339Z,6.85
2023-03-26T18:57:50.453Z,7.80
2023-03-26T19:01:52.614Z,7.65
2023-03-26T19:05:57.080Z,8.40
2023-03-26T19:10:01.277Z,10.15
2023-03-26T19:14:15.201Z,10.88
2023-03-26T19:18:25.477Z,11.00
2023-03-26T19:22:29.424Z,11.02
2023-03-26T19:26:31.915Z,9.88
2023-03-26T19:30:39.966Z,33.90
2023-03-26T19:34:45.832Z,28.40
2023-03-26T19:39:02.699Z,37.60
2023-03-26T19:43:05.553Z,39.50
2023-03-26T19:47:16.439Z,43.90
2023-03-26T19:51:24.234Z,53.15
2023-03-26T19:55:27.170Z,50.60
2023-03-26T19:59:29.500Z,43.33
2023-03-26T20:03:42.948Z,44.50
2023-03-26T20:07:45.526Z,41.13
2023-03-26T20:11:47.773Z,34.22
2023-03-26T20:16:05.551Z,33.45
2023-03-26T20:20:13.204Z,41.72
2023-03-26T20:24:17.766Z,38.88
2023-03-26T20:28:20.613Z,52.20
2023-03-26T20:32:26.426Z,55.50
2023-03-26T20:36:34.008Z,47.20
2023-03-26T20:40:38.613Z,37.92
2023-03-26T20:44:41.244Z,37.85
2023-03-26T20:48:43.308Z,38.42
2023-03-26T20:52:45.317Z,41.00
2023-03-26T20:56:49.122Z,49.28
2023-03-26T21:00:51.420Z,49.25
2023-03-26T21:04:53.929Z,60.50
2023-03-26T21:08:56.264Z,54.15
2023-03-26T21:13:02.425Z,72.63
2023-03-26T21:17:05.409Z,69.18
2023-03-26T21:21:28.058Z,67.25
2023-03-26T21:25:48.487Z,56.13
2023-03-26T21:29:52.615Z,55.85
2023-03-26T21:33:55.340Z,53.45
2023-03-26T21:37:57.848Z,56.13
2023-03-26T21:42:04.961Z,50.65
2023-03-26T21:46:08.725Z,45.85
2023-03-26T21:50:14.022Z,45.95
2023-03-26T21:54:27.970Z,44.03
2023-03-26T21:59:02.433Z,42.53
2023-03-26T22:03:07.319Z,42.55
2023-03-26T22:07:17.910Z,43.65
2023-03-26T22:11:20.130Z,44.03
2023-03-26T22:15:22.235Z,45.30
2023-03-26T22:19:24.364Z,42.10
2023-03-26T22:23:27.932Z,45.67
2023-03-26T22:27:30.230Z,46.20
2023-03-26T22:31:32.340Z,46.30
2023-03-26T22:35:34.398Z,45.70
2023-03-26T22:39:37.814Z,43.80
2023-03-26T22:43:39.860Z,45.08
2023-03-26T22:47:42.123Z,45.08
2023-03-26T22:51:44.392Z,40.95
2023-03-26T22:55:46.492Z,45.22
2023-03-26T22:59:48.580Z,50.38
2023-03-26T23:03:51.013Z,48.80
2023-03-26T23:07:53.228Z,53.53
2023-03-26T23:11:56.470Z,52.67
2023-03-26T23:15:58.651Z,91.28
2023-03-26T23:20:06.027Z,88.22
2023-03-26T23:24:08.204Z,107.72
2023-03-26T23:28:10.219Z,117.20
2023-03-26T23:32:23.403Z,120.78
2023-03-26T23:36:26.373Z,87.50
2023-03-26T23:40:28.396Z,64.18
2023-03-26T23:44:32.148Z,50.97
2023-03-26T23:48:34.159Z,52.38
2023-03-26T23:52:37.489Z,49.30
2023-03-26T23:56:39.567Z,45.30
